CDT,Max TemperatureF,Mean TemperatureF,Min TemperatureF,Max Dew PointF,MeanDew PointF,Min DewpointF,Max Humidity, Mean Humidity, Min Humidity, Max Sea Level PressureIn, Mean Sea Level PressureIn, Min Sea Level PressureIn, Max VisibilityMiles, Mean VisibilityMiles, Min VisibilityMiles, Max Wind SpeedMPH, Mean Wind SpeedMPH, Max Gust SpeedMPH,PrecipitationIn, CloudCover, Events, WindDirDegrees
2013-4-1,38,27,16,15,13,10,88,62,35,30.38,30.33,30.25,10,10,10,18,8,22,0.00,0,,348
2013-4-2,49,32,15,24,18,12,92,62,31,30.35,30.33,30.29,10,10,10,15,5,18,0.00,1,,82
2013-4-3,64,46,27,27,25,21,75,50,25,30.35,30.21,30.08,10,10,10,25,15,33,0.00,0,,175
2013-4-4,55,43,31,33,26,22,72,49,26,30.23,30.14,30.04,10,10,10,18,11,25,0.01,3,Rain,15
2013-4-5,60,45,29,38,26,19,75,56,36,30.22,30.00,29.64,10,10,10,30,16,38,T,5,,116
2013-4-6,63,48,33,40,36,33,92,64,36,29.85,29.62,29.50,10,10,9,29,15,36,T,3,Rain,324
2013-4-7,55,44,32,45,36,30,96,73,50,29.92,29.82,29.68,10,6,2,20,9,25,0.14,7,Rain,82
2013-4-8,54,45,35,46,40,34,100,89,77,29.97,29.73,29.63,10,3,0,29,14,36,T,7,Fog,49
2013-4-9,35,29,23,34,27,21,100,94,88,30.13,30.01,29.88,10,4,1,37,19,51,1.42,8,Rain-Snow-Thunderstorm,23
2013-4-10,30,29,28,30,28,23,100,92,80,30.09,29.99,29.84,10,3,0,29,12,35,0.38,8,Fog-Rain-Snow-Thunderstorm,40
2013-4-11,33,31,29,30,29,27,100,92,84,29.86,29.70,29.63,10,3,0,18,11,22,0.26,8,Fog-Snow,18
2013-4-12,32,29,26,28,26,22,93,85,72,29.99,29.86,29.71,10,10,6,20,12,24,T,8,Snow,317
2013-4-13,34,28,22,31,26,20,100,89,75,30.01,29.92,29.75,10,7,0,23,10,26,0.02,7,Fog-Rain-Snow,83
2013-4-14,41,37,32,39,33,26,100,88,75,29.73,29.48,29.35,10,7,0,28,15,36,0.03,7,Fog-Rain,137
2013-4-15,38,34,29,29,26,22,85,76,66,30.12,29.84,29.58,10,10,10,26,15,38,0.00,6,,282
2013-4-16,41,35,28,28,26,25,85,72,59,30.32,30.25,30.12,10,10,10,16,9,21,0.00,3,,356
2013-4-17,37,34,31,34,30,27,92,84,75,30.33,30.10,29.96,10,6,1,23,15,31,0.03,8,Rain-Snow,23
2013-4-18,32,29,26,30,28,21,92,87,81,29.96,29.83,29.76,10,3,0,30,22,38,0.31,8,Fog-Snow,333
2013-4-19,38,30,22,27,21,16,84,68,52,30.14,29.95,29.83,10,10,10,28,17,33,0.00,1,,318
2013-4-20,39,28,16,32,24,14,89,69,48,30.28,30.21,30.15,10,7,1,16,6,22,0.03,6,Snow,129
2013-4-21,53,44,35,45,35,28,89,74,59,30.20,30.11,30.02,10,10,8,20,12,25,0.04,7,Rain,223
2013-4-22,36,31,26,31,28,22,92,85,78,30.35,30.19,30.13,10,4,0,29,17,35,0.39,7,Fog-Snow,19
2013-4-23,34,28,22,23,20,16,84,70,56,30.33,30.27,30.18,10,10,10,21,10,24,0.00,2,,333
2013-4-24,47,36,24,37,30,20,92,76,59,30.17,30.07,29.96,10,9,1,35,10,46,0.06,3,Rain-Thunderstorm,279
2013-4-25,66,45,23,38,30,20,88,61,34,30.25,30.11,29.91,10,10,10,24,10,33,T,1,Rain,188
2013-4-26,72,56,40,37,34,29,67,45,22,30.17,30.05,29.94,10,10,10,17,7,25,0.00,0,,280
2013-4-27,76,53,30,44,34,28,89,54,18,30.17,30.03,29.86,10,10,10,21,6,26,0.00,0,,169
2013-4-28,85,69,53,48,44,37,77,49,20,29.85,29.75,29.63,10,10,10,29,15,35,0.00,1,,197
2013-4-29,78,61,44,45,38,27,69,41,20,29.84,29.69,29.41,10,10,10,20,11,29,0.00,1,,105
2013-4-30,70,59,47,52,37,23,77,49,20,30.04,29.67,29.34,10,10,10,28,16,33,0.01,2,Rain,313